createdAt,value
2022-10-28T00:04:39.064Z,0.0
2022-10-28T00:09:45.420Z,0.0
2022-10-28T00:14:55.803Z,0.0
2022-10-28T00:19:59.779Z,0.0
2022-10-28T00:25:06.130Z,0.0
2022-10-28T00:30:16.513Z,0.0
2022-10-28T00:35:18.900Z,0.0
2022-10-28T00:40:32.816Z,0.0
2022-10-28T00:45:35.216Z,0.0
2022-10-28T00:50:41.782Z,0.0
2022-10-28T00:55:48.311Z,0.0
2022-10-28T01:00:54.705Z,0.0
2022-10-28T01:06:01.105Z,0.0
2022-10-28T01:11:11.039Z,0.0
2022-10-28T01:16:21.422Z,0.0
2022-10-28T01:21:25.506Z,0.0
2022-10-28T01:26:21.913Z,0.0
2022-10-28T01:31:38.447Z,0.0
2022-10-28T01:36:44.847Z,0.0
2022-10-28T01:41:51.204Z,0.0
2022-10-28T01:47:01.590Z,0.0
2022-10-28T01:52:05.557Z,0.0
2022-10-28T01:57:12.001Z,0.0
2022-10-28T02:02:18.383Z,0.0
2022-10-28T02:07:24.810Z,0.0
2022-10-28T02:12:31.157Z,0.0
2022-10-28T02:17:37.546Z,0.0
2022-10-28T02:22:43.992Z,0.0
2022-10-28T02:27:50.746Z,0.0
2022-10-28T02:33:00.738Z,0.0
2022-10-28T02:37:53.100Z,0.0
2022-10-28T02:43:08.479Z,0.0
2022-10-28T02:48:19.443Z,0.0
2022-10-28T02:59:44.876Z,0.0
2022-10-28T03:03:40.146Z,0.0
2022-10-28T03:08:46.634Z,0.0
2022-10-28T03:13:52.992Z,0.0
2022-10-28T03:19:01.009Z,0.0
2022-10-28T03:24:07.352Z,0.0
2022-10-28T03:29:43.430Z,0.0
2022-10-28T03:34:11.641Z,0.0
2022-10-28T03:39:28.287Z,0.0
2022-10-28T03:44:34.614Z,0.0
2022-10-28T03:49:41.191Z,0.0
2022-10-28T03:54:47.586Z,0.0
2022-10-28T03:59:57.523Z,0.0
2022-10-28T04:05:03.896Z,0.0
2022-10-28T04:10:10.332Z,0.0
2022-10-28T04:15:16.780Z,0.0
2022-10-28T04:20:23.150Z,0.0
2022-10-28T04:25:29.670Z,0.0
2022-10-28T04:31:01.644Z,0.0
2022-10-28T04:35:43.986Z,0.0
2022-10-28T04:40:53.939Z,0.0
2022-10-28T04:46:03.293Z,0.0
2022-10-28T04:51:06.660Z,0.0
2022-10-28T04:56:13.207Z,0.0
2022-10-28T05:01:19.833Z,0.0
2022-10-28T05:06:26.084Z,0.0
2022-10-28T05:11:34.049Z,0.0
2022-10-28T05:16:40.428Z,0.0
2022-10-28T05:27:38.865Z,0.0
2022-10-28T05:32:47.482Z,0.0
2022-10-28T05:37:42.559Z,0.0
2022-10-28T05:44:15.152Z,0.0
2022-10-28T05:49:42.549Z,0.0
2022-10-28T05:54:27.980Z,0.0
2022-10-28T05:59:25.395Z,0.0
2022-10-28T06:04:40.836Z,0.0
2022-10-28T06:09:38.195Z,0.0
2022-10-28T06:15:53.198Z,0.0
2022-10-28T06:19:59.446Z,5.0
2022-10-28T06:25:05.818Z,10.0
2022-10-28T06:30:12.363Z,20.0
2022-10-28T06:35:42.930Z,30.0
2022-10-28T06:40:52.387Z,35.0
2022-10-28T06:45:31.642Z,40.0
2022-10-28T06:50:29.520Z,45.0
2022-10-28T06:55:45.933Z,60.0
2022-10-28T07:00:52.297Z,70.0
2022-10-28T07:05:58.668Z,85.0
2022-10-28T07:11:05.094Z,105.0
2022-10-28T07:16:11.586Z,140.0
2022-10-28T07:21:42.022Z,275.0
2022-10-28T07:26:24.496Z,205.0
2022-10-28T07:31:55.006Z,280.0
2022-10-28T07:36:57.381Z,430.0
2022-10-28T07:41:43.740Z,425.0
2022-10-28T07:46:40.119Z,380.0
2022-10-28T07:52:20.628Z,480.0
2022-10-28T07:57:06.924Z,545.0
2022-10-28T08:02:09.308Z,670.0
2022-10-28T08:07:15.644Z,695.0
2022-10-28T08:12:22.027Z,735.0
2022-10-28T08:17:28.387Z,330.0
2022-10-28T08:22:24.744Z,350.0
2022-10-28T08:27:31.138Z,800.0
2022-10-28T08:32:37.493Z,495.0
2022-10-28T08:37:42.886Z,280.0
2022-10-28T08:43:00.296Z,265.0
2022-10-28T08:47:57.156Z,270.0
2022-10-28T08:53:13.056Z,285.0
2022-10-28T08:58:43.496Z,310.0
2022-10-28T09:03:25.808Z,310.0
2022-10-28T09:08:32.242Z,300.0
2022-10-28T09:13:28.605Z,350.0
2022-10-28T09:18:45.037Z,370.0
2022-10-28T09:24:15.561Z,340.0
2022-10-28T09:28:57.954Z,390.0
2022-10-28T09:34:04.406Z,450.0
2022-10-28T09:39:10.806Z,490.0
2022-10-28T09:44:17.143Z,525.0
2022-10-28T09:49:23.657Z,585.0
2022-10-28T09:54:20.117Z,555.0
2022-10-28T10:00:00.553Z,865.0
2022-10-28T10:04:32.894Z,1140.0
2022-10-28T10:09:38.248Z,1095.0
2022-10-28T10:14:45.621Z,1670.0
2022-10-28T10:20:02.068Z,1670.0
2022-10-28T10:25:08.401Z,1010.0
2022-10-28T10:30:14.800Z,2065.0
2022-10-28T10:35:21.207Z,2020.0
2022-10-28T10:40:26.546Z,1485.0
2022-10-28T10:45:33.933Z,2235.0
2022-10-28T10:50:40.331Z,1490.0
2022-10-28T10:55:46.683Z,1645.0
2022-10-28T11:00:53.056Z,650.0
2022-10-28T11:06:21.872Z,1580.0
2022-10-28T11:11:06.380Z,1505.0
2022-10-28T11:16:33.865Z,1405.0
2022-10-28T11:21:20.416Z,830.0
2022-10-28T11:26:16.675Z,515.0
2022-10-28T11:31:22.063Z,550.0
2022-10-28T11:36:39.504Z,800.0
2022-10-28T11:41:45.959Z,900.0
2022-10-28T11:47:12.483Z,1010.0
2022-10-28T11:51:58.846Z,735.0
2022-10-28T11:57:05.232Z,1130.0
2022-10-28T12:02:11.711Z,895.0
2022-10-28T12:07:17.987Z,840.0
2022-10-28T12:12:14.320Z,880.0
2022-10-28T12:17:30.709Z,910.0
2022-10-28T12:22:37.130Z,840.0
2022-10-28T12:27:33.541Z,1040.0
2022-10-28T12:32:50.015Z,970.0
2022-10-28T12:37:57.049Z,1085.0
2022-10-28T12:43:02.898Z,575.0
2022-10-28T12:48:14.854Z,495.0
2022-10-28T12:53:07.242Z,525.0
2022-10-28T12:58:47.657Z,625.0
2022-10-28T13:03:30.066Z,675.0
2022-10-28T13:08:36.470Z,1215.0
2022-10-28T13:14:02.994Z,1015.0
2022-10-28T13:18:49.255Z,410.0
2022-10-28T13:23:55.667Z,265.0
2022-10-28T13:29:06.029Z,275.0
2022-10-28T13:34:32.528Z,325.0
2022-10-28T13:39:15.006Z,265.0
2022-10-28T13:44:25.357Z,255.0
2022-10-28T13:49:31.733Z,295.0
2022-10-28T13:54:34.126Z,455.0
2022-10-28T13:59:40.478Z,425.0
2022-10-28T14:04:50.872Z,455.0
2022-10-28T14:09:53.302Z,530.0
2022-10-28T14:14:59.670Z,525.0
2022-10-28T14:20:06.102Z,370.0
2022-10-28T14:25:02.484Z,290.0
2022-10-28T14:30:22.870Z,200.0
2022-10-28T14:35:45.342Z,170.0
2022-10-28T14:41:05.818Z,130.0
2022-10-28T14:46:13.278Z,100.0
2022-10-28T14:51:53.757Z,85.0
2022-10-28T14:57:01.190Z,65.0
2022-10-28T15:02:07.704Z,55.0
2022-10-28T15:07:03.926Z,40.0
2022-10-28T15:12:20.336Z,35.0
2022-10-28T15:17:26.682Z,30.0
2022-10-28T15:22:33.124Z,30.0
2022-10-28T15:27:29.613Z,25.0
2022-10-28T15:32:36.080Z,25.0
2022-10-28T15:37:41.461Z,25.0
2022-10-28T15:43:02.933Z,20.0
2022-10-28T15:48:05.233Z,15.0
2022-10-28T15:53:11.605Z,15.0
2022-10-28T15:58:19.381Z,5.0
2022-10-28T16:08:30.735Z,0.0
2022-10-28T16:13:37.185Z,0.0
2022-10-28T16:18:43.692Z,0.0
2022-10-28T16:23:50.120Z,0.0
2022-10-28T16:28:56.514Z,0.0
2022-10-28T16:34:02.902Z,0.0
2022-10-28T16:38:59.269Z,0.0
2022-10-28T16:45:17.825Z,0.0
2022-10-28T16:49:22.063Z,0.0
2022-10-28T16:54:28.449Z,0.0
2022-10-28T16:59:34.869Z,0.0
2022-10-28T17:04:41.283Z,0.0
2022-10-28T17:09:47.650Z,0.0
2022-10-28T17:14:54.045Z,0.0
2022-10-28T17:20:52.555Z,0.0
2022-10-28T17:25:06.803Z,0.0
2022-10-28T17:30:13.306Z,0.0
2022-10-28T17:35:19.605Z,0.0
2022-10-28T17:40:26.041Z,0.0
2022-10-28T17:45:32.400Z,0.0
2022-10-28T17:51:06.832Z,0.0
2022-10-28T17:55:45.262Z,0.0
2022-10-28T18:00:55.129Z,0.0
2022-10-28T18:06:25.562Z,0.0
2022-10-28T18:12:24.063Z,0.0
2022-10-28T18:16:14.266Z,0.0
2022-10-28T18:21:20.655Z,0.0
2022-10-28T18:26:31.041Z,0.0
2022-10-28T18:31:33.451Z,0.0
2022-10-28T18:36:59.858Z,0.0
2022-10-28T18:41:46.194Z,0.0
2022-10-28T18:46:52.706Z,0.0
2022-10-28T18:51:59.059Z,0.0
2022-10-28T18:57:05.449Z,0.0
2022-10-28T19:02:12.089Z,0.0
2022-10-28T19:07:09.344Z,0.0
2022-10-28T19:12:29.740Z,0.0
2022-10-28T19:17:32.140Z,0.0
2022-10-28T19:22:40.081Z,0.0
2022-10-28T19:27:46.528Z,0.0
2022-10-28T19:32:53.386Z,0.0
2022-10-28T19:43:06.251Z,0.0
2022-10-28T19:48:15.233Z,0.0
2022-10-28T19:53:21.594Z,0.0
2022-10-28T19:58:27.970Z,0.0
2022-10-28T20:03:35.040Z,0.0
2022-10-28T20:08:40.789Z,0.0
2022-10-28T20:13:47.281Z,0.0
2022-10-28T20:19:21.360Z,0.0
2022-10-28T20:24:03.783Z,0.0
2022-10-28T20:29:14.161Z,0.0
2022-10-28T20:34:16.614Z,0.0
2022-10-28T20:39:23.108Z,0.0
2022-10-28T20:44:29.463Z,0.0
2022-10-28T20:49:39.426Z,0.0
2022-10-28T20:54:35.850Z,0.0
2022-10-28T20:59:53.805Z,0.0
2022-10-28T21:05:00.210Z,0.0
2022-10-28T21:10:10.589Z,0.0
2022-10-28T21:15:13.007Z,0.0
2022-10-28T21:20:19.498Z,0.0
2022-10-28T21:25:25.911Z,0.0
2022-10-28T21:30:33.899Z,0.0
2022-10-28T21:35:40.267Z,0.0
2022-10-28T21:40:46.691Z,0.0
2022-10-28T21:45:53.044Z,0.0
2022-10-28T21:50:59.421Z,0.0
2022-10-28T21:56:05.814Z,0.0
2022-10-28T22:01:12.344Z,0.0
2022-10-28T22:06:18.562Z,0.0
2022-10-28T22:11:28.978Z,0.0
2022-10-28T22:16:31.320Z,0.0
2022-10-28T22:21:37.685Z,0.0
2022-10-28T22:26:48.177Z,0.0
2022-10-28T22:31:50.462Z,0.0
2022-10-28T22:36:56.876Z,0.0
2022-10-28T22:42:04.859Z,0.0
2022-10-28T22:47:11.296Z,0.0
2022-10-28T22:52:21.681Z,0.0
2022-10-28T22:57:28.100Z,0.0
2022-10-28T23:02:32.161Z,0.0
2022-10-28T23:07:38.361Z,0.0
2022-10-28T23:12:44.894Z,0.0
2022-10-28T23:17:41.223Z,0.0
2022-10-28T23:22:59.187Z,0.0
2022-10-28T23:28:05.699Z,0.0
2022-10-28T23:33:12.051Z,0.0
2022-10-28T23:38:18.447Z,0.0
2022-10-28T23:43:28.849Z,0.0
2022-10-28T23:48:31.198Z,0.0
2022-10-28T23:53:37.567Z,0.0
2022-10-28T23:58:44.034Z,0.0
